Time;durP1;ratioP1;P1;durP2;ratioP2;P2;SDS_P1;SDS_P2;PMS_P1;PMS_P2;Temp;Humidity;BMP_temperature;BMP_pressure;BME280_temperature;BME280_humidity;BME280_pressure;Samples;Min_cycle;Max_cycle;Signal;HPM_P1;HPM_P2
2023/03/17 00:02:15;;;;;;;2.17;2.00;;;;;;;6.68;54.82;100938.13;5012646;28;20218;-77
2023/03/17 00:04:42;;;;;;;2.00;1.90;;;;;;;6.74;54.88;100925.19;5011778;28;20740;-77
2023/03/17 00:07:17;;;;;;;2.07;1.87;;;;;;;6.79;55.65;100926.94;5012331;28;20238;-76
2023/03/17 00:09:43;;;;;;;2.10;1.90;;;;;;;6.75;55.65;100918.25;5012905;28;20224;-75
2023/03/17 00:12:11;;;;;;;2.13;1.93;;;;;;;6.75;55.34;100906.16;5012712;28;20648;-77
2023/03/17 00:14:38;;;;;;;2.10;1.90;;;;;;;6.73;55.47;100902.69;5013592;28;20203;-77
2023/03/17 00:17:05;;;;;;;2.50;2.30;;;;;;;6.75;55.33;100898.38;5013249;28;20226;-77
2023/03/17 00:19:34;;;;;;;2.73;2.10;;;;;;;6.74;55.50;100906.16;5013420;28;20260;-77
2023/03/17 00:22:02;;;;;;;3.33;2.10;;;;;;;6.75;55.67;100902.69;5011668;28;20281;-77
2023/03/17 00:24:29;;;;;;;2.10;2.00;;;;;;;6.78;55.89;100900.13;5013761;28;20210;-75
2023/03/17 00:26:56;;;;;;;2.23;2.10;;;;;;;6.76;55.44;100910.50;5012504;28;20601;-75
2023/03/17 00:29:23;;;;;;;2.17;2.07;;;;;;;6.81;55.15;100907.06;5013024;28;20226;-75
2023/03/17 00:31:49;;;;;;;2.53;2.20;;;;;;;6.86;55.51;100895.84;5012732;28;20232;-75
2023/03/17 00:34:18;;;;;;;2.63;2.00;;;;;;;6.78;55.17;100899.25;5012244;28;20207;-77
2023/03/17 00:36:46;;;;;;;3.00;2.57;;;;;;;6.82;55.76;100895.78;5012332;28;20324;-75
2023/03/17 00:39:15;;;;;;;2.43;2.23;;;;;;;6.83;55.04;100889.75;5012384;28;20202;-75
2023/03/17 00:41:43;;;;;;;2.53;2.33;;;;;;;6.84;55.99;100894.06;5012226;28;20254;-75
2023/03/17 00:44:10;;;;;;;3.23;2.60;;;;;;;6.79;55.17;100883.69;5012000;28;20213;-75
2023/03/17 00:46:37;;;;;;;3.00;2.33;;;;;;;6.79;54.80;100883.69;5012081;28;20226;-75
2023/03/17 00:49:13;;;;;;;2.73;2.53;;;;;;;6.82;55.35;100912.25;5012368;28;20270;-75
2023/03/17 00:51:39;;;;;;;2.40;2.20;;;;;;;6.82;55.49;100898.38;5012268;28;20592;-75
2023/03/17 00:54:05;;;;;;;2.87;2.50;;;;;;;6.77;55.30;100888.00;5010251;28;20234;-75
2023/03/17 00:56:32;;;;;;;2.93;2.63;;;;;;;6.85;55.07;100888.91;5012009;28;20226;-75
2023/03/17 00:59:00;;;;;;;2.43;2.23;;;;;;;6.80;55.11;100888.03;5012066;28;20292;-75
2023/03/17 01:01:26;;;;;;;2.97;2.70;;;;;;;6.90;54.87;100887.19;5012519;28;20219;-77
2023/03/17 01:03:52;;;;;;;2.73;2.53;;;;;;;6.85;54.55;100896.69;5012005;28;20242;-76
2023/03/17 01:06:19;;;;;;;2.77;2.57;;;;;;;6.87;55.58;100891.50;5011739;28;20992;-76
2023/03/17 01:08:46;;;;;;;2.83;2.43;;;;;;;6.86;55.21;100880.25;5011847;28;20285;-76
2023/03/17 01:11:17;;;;;;;3.00;2.20;;;;;;;6.87;55.55;100888.91;5010062;28;20202;-76
2023/03/17 01:13:44;;;;;;;3.40;2.30;;;;;;;6.88;55.43;100883.72;5011555;28;20294;-75
2023/03/17 01:16:12;;;;;;;2.97;2.50;;;;;;;6.92;55.19;100876.81;5011851;28;20226;-77
2023/03/17 01:18:39;;;;;;;2.77;2.57;;;;;;;6.95;55.34;100874.22;5013098;28;20214;-77
2023/03/17 01:21:06;;;;;;;3.20;2.90;;;;;;;6.89;54.60;100861.22;5012413;28;20747;-75
2023/03/17 01:23:33;;;;;;;3.07;2.83;;;;;;;6.86;54.71;100875.06;5011544;28;20210;-75
2023/03/17 01:25:59;;;;;;;2.80;2.60;;;;;;;6.96;54.54;100874.22;5011715;28;20250;-77
2023/03/17 01:28:26;;;;;;;3.03;2.73;;;;;;;7.00;55.35;100887.19;5011015;28;20222;-75
2023/03/17 01:30:52;;;;;;;3.07;2.87;;;;;;;7.02;55.05;100893.28;5011618;28;20582;-75
2023/03/17 01:33:19;;;;;;;4.23;3.27;;;;;;;6.97;55.54;100885.47;5011291;28;20751;-75
2023/03/17 01:35:46;;;;;;;2.87;2.50;;;;;;;6.97;55.00;100881.16;5011539;28;20227;-78
2023/03/17 01:38:13;;;;;;;2.80;2.60;;;;;;;6.94;54.20;100885.47;5012978;28;20203;-78
2023/03/17 01:40:44;;;;;;;3.33;2.93;;;;;;;7.04;54.91;100887.25;5012427;28;20580;-77
2023/03/17 01:43:20;;;;;;;3.27;2.80;;;;;;;7.05;55.28;100899.34;5012589;28;20238;-75
2023/03/17 01:46:26;;;;;;;3.30;2.83;;;;;;;7.03;55.13;100895.00;5000090;28;20219;-76
2023/03/17 01:49:15;;;;;;;3.00;2.57;;;;;;;7.07;55.24;100886.38;4991929;28;20226;-75
2023/03/17 01:51:50;;;;;;;2.70;2.50;;;;;;;7.03;55.16;100882.03;4992091;28;20231;-75
2023/03/17 01:54:22;;;;;;;2.73;2.53;;;;;;;7.02;55.01;100891.56;5004523;28;20684;-77
2023/03/17 01:56:50;;;;;;;3.20;2.90;;;;;;;6.94;54.73;100911.44;5012177;28;20731;-77
2023/03/17 01:59:22;;;;;;;3.87;2.73;;;;;;;6.93;54.99;100900.16;5013010;28;20241;-77
2023/03/17 02:01:52;;;;;;;3.53;2.90;;;;;;;7.02;55.05;100894.16;4993195;28;20266;-77
2023/03/17 02:04:20;;;;;;;3.10;2.90;;;;;;;7.01;55.17;100888.94;4993537;28;20254;-76
2023/03/17 02:06:48;;;;;;;3.70;2.80;;;;;;;6.90;55.53;100897.56;4991643;28;20233;-77
2023/03/17 02:09:14;;;;;;;3.90;3.27;;;;;;;6.92;55.13;100867.31;4993951;28;20314;-77
2023/03/17 02:11:41;;;;;;;2.90;2.70;;;;;;;7.04;55.78;100863.88;4993389;28;20230;-77
2023/03/17 02:14:07;;;;;;;3.23;2.67;;;;;;;7.03;56.11;100862.13;4991568;28;20340;-76
2023/03/17 02:16:34;;;;;;;3.20;2.90;;;;;;;7.06;55.83;100856.97;4994296;28;20223;-75
2023/03/17 02:19:00;;;;;;;2.90;2.70;;;;;;;7.07;56.40;100848.28;5013315;28;20214;-77
2023/03/17 02:21:34;;;;;;;4.13;3.17;;;;;;;7.06;55.41;100838.78;5011399;28;20261;-76
2023/03/17 02:24:04;;;;;;;2.80;2.57;;;;;;;7.06;55.17;100838.78;5013840;28;20203;-76
2023/03/17 02:26:34;;;;;;;3.17;2.87;;;;;;;7.01;55.30;100826.66;5014684;28;20313;-75
2023/03/17 02:29:01;;;;;;;2.70;2.50;;;;;;;7.05;56.14;100824.06;5014520;28;20231;-76
2023/03/17 02:31:27;;;;;;;3.10;2.73;;;;;;;7.06;55.56;100815.44;5013501;28;20689;-76
2023/03/17 02:33:54;;;;;;;3.30;2.83;;;;;;;7.05;55.54;100813.69;5014447;28;20265;-76
2023/03/17 02:36:21;;;;;;;2.90;2.70;;;;;;;7.01;54.92;100824.94;5014498;28;20243;-75
2023/03/17 02:38:49;;;;;;;3.43;2.73;;;;;;;7.07;55.67;100821.47;5014434;28;20198;-76
2023/03/17 02:41:15;;;;;;;3.60;3.30;;;;;;;7.08;55.82;100800.72;5014269;28;20257;-75
2023/03/17 02:43:42;;;;;;;3.97;2.97;;;;;;;7.08;55.54;100813.69;5014311;28;20265;-75
2023/03/17 02:46:08;;;;;;;3.17;2.87;;;;;;;7.06;55.25;100814.56;4999349;28;20251;-75
2023/03/17 02:48:36;;;;;;;3.47;2.90;;;;;;;7.05;54.91;100836.19;4994826;28;20263;-76
2023/03/17 02:51:03;;;;;;;3.73;2.90;;;;;;;6.96;54.87;100842.25;4994612;28;20203;-76
2023/03/17 02:53:30;;;;;;;3.13;2.80;;;;;;;6.97;55.23;100847.41;4994528;28;20238;-77
2023/03/17 02:55:57;;;;;;;3.00;2.67;;;;;;;7.04;55.26;100856.09;4995708;28;20718;-77
2023/03/17 02:58:24;;;;;;;2.93;2.67;;;;;;;7.06;54.52;100863.88;4995401;28;20235;-75
2023/03/17 03:00:50;;;;;;;2.93;2.70;;;;;;;7.13;55.44;100876.84;5002763;28;20284;-76
2023/03/17 03:03:16;;;;;;;3.37;2.97;;;;;;;7.18;55.45;100863.06;5014323;28;20214;-75
2023/03/17 03:05:43;;;;;;;3.40;2.93;;;;;;;7.18;55.10;100871.69;5013823;28;20265;-75
2023/03/17 03:08:09;;;;;;;2.80;2.60;;;;;;;7.24;54.69;100863.06;5013785;28;20835;-75
2023/03/17 03:10:36;;;;;;;4.33;2.80;;;;;;;7.30;55.00;100856.13;5013553;28;20627;-75
2023/03/17 03:13:03;;;;;;;3.30;3.10;;;;;;;7.29;53.98;100861.31;5013692;28;20207;-75
2023/03/17 03:15:29;;;;;;;3.53;3.03;;;;;;;7.36;54.40;100868.25;5003710;28;20792;-77
2023/03/17 03:17:56;;;;;;;2.93;2.73;;;;;;;7.36;54.75;100882.09;4995707;28;20250;-76
2023/03/17 03:20:22;;;;;;;3.37;3.07;;;;;;;7.37;54.72;100872.56;4994215;28;20238;-76
2023/03/17 03:22:49;;;;;;;3.30;3.00;;;;;;;7.33;54.59;100900.28;4993759;28;20213;-75
2023/03/17 03:25:15;;;;;;;3.53;2.73;;;;;;;7.33;54.24;100902.88;4994123;28;20216;-77
2023/03/17 03:27:42;;;;;;;3.03;2.70;;;;;;;7.25;54.32;100914.09;4996233;28;20208;-77
2023/03/17 03:30:11;;;;;;;2.77;2.50;;;;;;;7.22;54.43;100906.31;5003106;28;20246;-77
2023/03/17 03:32:37;;;;;;;3.33;2.80;;;;;;;7.26;54.68;100910.66;5013968;28;20690;-76
2023/03/17 03:35:04;;;;;;;3.20;2.90;;;;;;;7.33;54.97;100895.09;5013884;28;20234;-76
2023/03/17 03:37:30;;;;;;;3.27;2.83;;;;;;;7.14;54.46;100899.38;5013757;28;20258;-75
2023/03/17 03:39:56;;;;;;;2.90;2.70;;;;;;;7.16;54.17;100891.59;5013313;28;20203;-76
2023/03/17 03:42:23;;;;;;;2.77;2.57;;;;;;;7.09;55.29;100897.63;5013182;28;20235;-76
2023/03/17 03:44:49;;;;;;;3.23;2.93;;;;;;;7.08;53.87;100877.75;5000595;28;20235;-75
2023/03/17 03:47:17;;;;;;;3.13;2.83;;;;;;;7.18;54.32;100883.81;4993638;28;20266;-76
2023/03/17 03:49:43;;;;;;;3.03;2.83;;;;;;;7.25;55.24;100882.94;4993429;28;20288;-75
2023/03/17 03:52:09;;;;;;;3.10;2.80;;;;;;;7.28;54.83;100877.78;4993228;28;20246;-76
2023/03/17 03:54:36;;;;;;;2.70;2.50;;;;;;;7.21;54.36;100874.28;4993564;28;20204;-76
2023/03/17 03:57:02;;;;;;;2.70;2.40;;;;;;;7.21;54.88;100878.63;4993589;28;20319;-76
2023/03/17 03:59:29;;;;;;;3.30;2.77;;;;;;;7.24;54.86;100873.44;4993753;28;20211;-76
2023/03/17 04:01:55;;;;;;;3.00;2.70;;;;;;;7.16;54.90;100869.09;4993220;28;20209;-75
2023/03/17 04:04:23;;;;;;;3.03;2.70;;;;;;;7.19;55.14;100870.81;4993060;28;20239;-76
2023/03/17 04:06:49;;;;;;;3.03;2.83;;;;;;;7.07;55.25;100857.81;4992948;28;20259;-76
2023/03/17 04:09:16;;;;;;;3.20;2.90;;;;;;;7.07;55.58;100840.50;4993872;28;20255;-76
2023/03/17 04:11:42;;;;;;;3.07;2.67;;;;;;;7.09;56.04;100823.19;4993606;28;20207;-76
2023/03/17 04:14:09;;;;;;;2.77;2.50;;;;;;;7.10;56.51;100804.19;5000074;28;20230;-75
2023/03/17 04:16:35;;;;;;;2.90;2.43;;;;;;;7.00;56.13;100797.25;5012739;28;20254;-76
2023/03/17 04:19:02;;;;;;;2.97;2.67;;;;;;;6.99;56.31;100776.47;5012491;28;20696;-76
2023/03/17 04:21:30;;;;;;;3.03;2.77;;;;;;;6.96;56.42;100761.78;5013119;28;20207;-75
2023/03/17 04:23:56;;;;;;;3.20;2.70;;;;;;;6.89;56.30;100762.63;5012510;28;20234;-76
2023/03/17 04:26:23;;;;;;;2.83;2.63;;;;;;;6.94;56.78;100772.16;5012635;28;20227;-76
2023/03/17 04:28:49;;;;;;;2.97;2.60;;;;;;;6.98;55.84;100770.44;5007371;28;20637;-76
2023/03/17 04:31:15;;;;;;;4.57;3.20;;;;;;;6.96;55.55;100770.44;4992858;28;20204;-75
2023/03/17 04:33:42;;;;;;;2.73;2.53;;;;;;;7.05;55.74;100764.38;4992395;28;20211;-75
2023/03/17 04:36:16;;;;;;;3.07;2.80;;;;;;;7.03;55.50;100773.88;4992571;28;20227;-76
2023/03/17 04:38:44;;;;;;;3.20;2.97;;;;;;;6.98;55.52;100791.19;4992919;28;20204;-76
2023/03/17 04:41:11;;;;;;;3.03;2.73;;;;;;;6.88;54.84;100785.13;4993340;28;20234;-76
2023/03/17 04:43:37;;;;;;;2.60;2.40;;;;;;;6.89;55.55;100799.81;4993511;28;20204;-75
2023/03/17 04:46:03;;;;;;;2.93;2.60;;;;;;;6.96;55.35;100798.13;4992095;28;20227;-75
2023/03/17 04:48:30;;;;;;;2.57;2.37;;;;;;;6.95;55.21;100796.38;4992782;28;20204;-76
2023/03/17 04:50:56;;;;;;;2.80;2.57;;;;;;;6.90;54.87;100806.75;4993125;28;20231;-75
2023/03/17 04:53:23;;;;;;;5.03;2.80;;;;;;;6.83;55.36;100809.31;4992571;28;20236;-76
2023/03/17 04:55:50;;;;;;;2.57;2.37;;;;;;;6.85;54.72;100817.97;4993484;28;20233;-75
2023/03/17 04:58:17;;;;;;;4.40;2.87;;;;;;;6.94;55.63;100816.28;4993641;28;20211;-76
2023/03/17 05:00:43;;;;;;;3.40;3.10;;;;;;;6.95;54.82;100820.59;4992377;28;20714;-76
2023/03/17 05:03:09;;;;;;;3.10;2.80;;;;;;;6.99;55.57;100813.69;4992242;28;20244;-76
2023/03/17 05:05:36;;;;;;;5.03;2.60;;;;;;;7.00;55.49;100807.63;4992371;28;20275;-76
2023/03/17 05:08:03;;;;;;;3.07;2.77;;;;;;;6.94;55.11;100818.88;4992530;28;20255;-75
2023/03/17 05:10:29;;;;;;;2.70;2.30;;;;;;;6.96;55.81;100813.69;4992191;28;20705;-75
2023/03/17 05:12:57;;;;;;;2.80;2.60;;;;;;;6.96;56.57;100819.75;4992018;28;20207;-75
2023/03/17 05:15:23;;;;;;;3.20;2.60;;;;;;;6.90;56.49;100816.28;5009942;28;20231;-76
2023/03/17 05:17:50;;;;;;;3.67;3.10;;;;;;;6.90;55.93;100798.97;5011916;28;20261;-76
2023/03/17 05:20:16;;;;;;;3.10;2.90;;;;;;;6.85;55.89;100802.41;5011149;28;20269;-75
2023/03/17 05:22:43;;;;;;;2.93;2.67;;;;;;;6.84;55.98;100801.56;5011359;28;20881;-78
2023/03/17 05:25:09;;;;;;;2.50;2.30;;;;;;;6.82;56.70;100797.19;5014166;28;20257;-76
2023/03/17 05:27:36;;;;;;;3.43;2.83;;;;;;;6.76;57.41;100785.97;5011847;28;20293;-76
2023/03/17 05:30:05;;;;;;;2.87;2.50;;;;;;;6.71;56.83;100746.16;4995840;28;20230;-76
2023/03/17 05:32:31;;;;;;;3.17;2.87;;;;;;;6.59;56.60;100743.53;4992347;28;20261;-76
2023/03/17 05:34:58;;;;;;;3.37;3.07;;;;;;;6.54;57.57;100727.09;4992296;28;20211;-76
2023/03/17 05:37:24;;;;;;;3.50;3.23;;;;;;;6.48;56.69;100732.28;4992164;28;20260;-75
2023/03/17 05:39:52;;;;;;;3.80;2.90;;;;;;;6.61;56.60;100733.19;4992190;28;20199;-76
2023/03/17 05:42:19;;;;;;;4.63;3.43;;;;;;;6.49;56.44;100734.88;4991796;28;20231;-76
2023/03/17 05:44:45;;;;;;;5.03;4.63;;;;;;;6.47;57.57;100733.16;5004943;28;20208;-76
2023/03/17 05:47:13;;;;;;;5.30;4.33;;;;;;;6.48;56.11;100720.19;5011642;28;20377;-76
2023/03/17 05:49:39;;;;;;;3.00;2.70;;;;;;;6.52;56.86;100732.31;5011687;28;20310;-76
2023/03/17 05:52:06;;;;;;;3.83;3.07;;;;;;;6.48;57.97;100735.75;5011449;28;20236;-76
2023/03/17 05:54:32;;;;;;;2.70;2.50;;;;;;;6.30;58.06;100721.00;5011455;28;20207;-76
2023/03/17 05:56:59;;;;;;;2.87;2.67;;;;;;;6.19;56.87;100701.09;5011460;28;20312;-76
2023/03/17 05:59:25;;;;;;;4.37;3.57;;;;;;;6.27;58.76;100708.03;5004109;28;20196;-76
2023/03/17 06:01:51;;;;;;;4.30;2.80;;;;;;;6.33;58.28;100689.03;4995914;28;20265;-76
2023/03/17 06:04:19;;;;;;;3.47;3.17;;;;;;;6.21;58.29;100699.38;4995625;28;20695;-76
2023/03/17 06:06:46;;;;;;;3.77;3.40;;;;;;;6.23;58.27;100695.06;4995727;28;20258;-76
2023/03/17 06:09:12;;;;;;;4.60;3.07;;;;;;;6.36;58.29;100669.19;4995455;28;20208;-75
2023/03/17 06:11:39;;;;;;;2.93;2.73;;;;;;;6.32;57.07;100685.59;4995476;28;20277;-76
2023/03/17 06:14:06;;;;;;;2.60;2.40;;;;;;;6.41;58.54;100682.13;4995293;28;20653;-75
2023/03/17 06:16:32;;;;;;;2.93;2.70;;;;;;;6.36;58.04;100700.28;5007913;28;20230;-76
2023/03/17 06:18:59;;;;;;;3.10;2.80;;;;;;;6.41;57.42;100699.44;5014996;28;20207;-76
2023/03/17 06:21:27;;;;;;;3.10;2.80;;;;;;;6.44;58.12;100708.09;5014799;28;20237;-75
2023/03/17 06:23:53;;;;;;;3.00;2.77;;;;;;;6.48;59.36;100714.13;5014527;28;20583;-75
2023/03/17 06:26:19;;;;;;;3.13;2.93;;;;;;;6.35;58.93;100695.94;5014561;28;20265;-76
2023/03/17 06:28:46;;;;;;;5.07;3.13;;;;;;;6.07;59.25;100692.41;5008939;28;20235;-76
2023/03/17 06:31:12;;;;;;;4.40;4.00;;;;;;;6.10;59.65;100678.59;4995043;28;20234;-76
2023/03/17 06:33:39;;;;;;;3.10;2.67;;;;;;;6.10;59.84;100655.28;4995291;28;20209;-76
2023/03/17 06:36:06;;;;;;;3.77;3.43;;;;;;;6.21;59.47;100635.44;4995013;28;20281;-76
2023/03/17 06:38:34;;;;;;;4.23;3.30;;;;;;;6.24;58.70;100624.19;4994895;28;20211;-76
2023/03/17 06:41:00;;;;;;;3.60;3.30;;;;;;;6.35;58.78;100633.72;4994803;28;20227;-75
2023/03/17 06:43:27;;;;;;;3.87;2.93;;;;;;;6.46;57.43;100632.88;4994863;28;20236;-76
2023/03/17 06:45:53;;;;;;;3.23;2.93;;;;;;;6.35;57.98;100658.78;4994858;28;20227;-75
2023/03/17 06:48:22;;;;;;;3.10;2.80;;;;;;;6.48;57.52;100672.63;4994833;28;20212;-76
2023/03/17 06:50:49;;;;;;;3.53;3.23;;;;;;;6.47;58.95;100700.28;4994782;28;20227;-76
2023/03/17 06:53:15;;;;;;;2.80;2.43;;;;;;;6.65;58.16;100675.25;4994352;28;20207;-76
2023/03/17 06:55:43;;;;;;;3.20;2.80;;;;;;;6.72;57.46;100674.41;4994428;28;20269;-76
2023/03/17 06:58:12;;;;;;;3.53;3.20;;;;;;;6.73;58.58;100687.34;4995649;28;20302;-76
2023/03/17 07:00:38;;;;;;;3.13;2.83;;;;;;;6.69;57.51;100685.63;5014164;28;20245;-75
2023/03/17 07:03:05;;;;;;;3.20;2.90;;;;;;;6.79;56.72;100690.84;5013792;28;20692;-75
2023/03/17 07:05:31;;;;;;;3.00;2.70;;;;;;;6.95;56.58;100702.94;5014228;28;20233;-76
2023/03/17 07:07:58;;;;;;;5.73;3.47;;;;;;;7.08;56.73;100707.28;5013563;28;20293;-76
2023/03/17 07:10:25;;;;;;;3.60;3.30;;;;;;;7.11;55.41;100711.59;5013917;28;20258;-75
2023/03/17 07:12:52;;;;;;;3.17;2.87;;;;;;;7.23;55.85;100734.94;5013710;28;20261;-76
2023/03/17 07:15:19;;;;;;;2.60;2.40;;;;;;;7.34;55.76;100737.56;4994644;28;20765;-76
2023/03/17 07:17:46;;;;;;;3.50;2.33;;;;;;;7.42;54.94;100758.31;4994248;28;20247;-76
2023/03/17 07:20:13;;;;;;;2.67;2.47;;;;;;;7.65;53.64;100779.94;4994239;28;20217;-76
2023/03/17 07:22:40;;;;;;;3.50;2.80;;;;;;;7.73;55.64;100817.19;4993760;28;20210;-76
2023/03/17 07:25:08;;;;;;;2.60;2.40;;;;;;;7.76;55.34;100811.09;4994359;28;20233;-76
2023/03/17 07:27:35;;;;;;;2.83;2.27;;;;;;;7.78;55.09;100766.94;4994097;28;20578;-76
2023/03/17 07:30:03;;;;;;;2.30;2.10;;;;;;;7.84;58.87;100813.69;4994342;28;20259;-76
2023/03/17 07:32:30;;;;;;;1.80;1.70;;;;;;;7.82;59.13;100764.31;4994094;28;20700;-76
2023/03/17 07:34:57;;;;;;;2.70;2.20;;;;;;;7.80;58.34;100689.81;4993845;28;20204;-76
2023/03/17 07:37:23;;;;;;;2.47;2.00;;;;;;;7.91;55.03;100686.31;4993659;28;20742;-76
2023/03/17 07:39:50;;;;;;;1.97;1.87;;;;;;;8.02;56.26;100737.41;4993726;28;20679;-76
2023/03/17 07:42:17;;;;;;;2.20;2.00;;;;;;;8.07;55.78;100746.06;4993614;28;20238;-76
2023/03/17 07:44:44;;;;;;;2.93;2.30;;;;;;;8.17;54.75;100765.94;4993890;28;20831;-75
2023/03/17 07:47:12;;;;;;;2.43;2.23;;;;;;;8.25;53.18;100758.97;4993514;28;20785;-75
2023/03/17 07:49:39;;;;;;;2.03;1.83;;;;;;;8.37;53.99;100807.47;4993406;28;20720;-76
2023/03/17 07:52:07;;;;;;;2.37;1.80;;;;;;;8.48;52.40;100810.06;4993630;28;20211;-76
2023/03/17 07:54:34;;;;;;;3.97;2.40;;;;;;;8.58;51.93;100852.50;4993422;28;20210;-75
2023/03/17 07:57:00;;;;;;;2.10;1.90;;;;;;;8.62;53.15;100883.75;4993497;28;20224;-75
2023/03/17 07:59:27;;;;;;;2.40;1.83;;;;;;;8.66;53.48;100875.03;5005310;28;20235;-75
2023/03/17 08:01:54;;;;;;;2.20;2.00;;;;;;;8.73;52.31;100871.53;5013195;28;20261;-75
2023/03/17 08:04:21;;;;;;;2.27;2.10;;;;;;;8.82;51.65;100887.97;5012605;28;20253;-75
2023/03/17 08:06:48;;;;;;;2.13;1.80;;;;;;;8.93;50.71;100912.22;5013141;28;20319;-75
2023/03/17 08:09:15;;;;;;;2.00;1.80;;;;;;;8.99;50.14;100932.16;5013118;28;20577;-76
2023/03/17 08:11:41;;;;;;;1.90;1.80;;;;;;;9.07;50.22;100940.81;5013368;28;20277;-76
2023/03/17 08:14:08;;;;;;;2.60;1.93;;;;;;;9.22;50.57;100958.97;5012529;28;20249;-76
2023/03/17 08:16:34;;;;;;;2.03;1.60;;;;;;;9.49;56.88;100933.63;5011495;28;20593;-76
2023/03/17 08:19:02;;;;;;;2.00;1.83;;;;;;;9.51;51.11;100872.81;5013053;28;20211;-76
2023/03/17 08:21:30;;;;;;;1.93;1.73;;;;;;;9.65;52.63;100890.06;5011937;28;20206;-76
2023/03/17 08:23:57;;;;;;;2.00;1.73;;;;;;;9.79;54.93;100874.31;5012378;28;20208;-76
2023/03/17 08:26:23;;;;;;;3.50;1.70;;;;;;;9.82;51.80;100853.44;5012530;28;20254;-76
2023/03/17 08:28:50;;;;;;;2.17;1.85;;;;;;;9.93;51.45;100865.50;5011782;28;20941;-76
2023/03/17 08:31:18;;;;;;;2.03;1.90;;;;;;;10.07;52.33;100877.56;5012321;28;20229;-76
2023/03/17 08:33:47;;;;;;;1.93;1.80;;;;;;;10.05;51.00;100908.88;5010608;28;20297;-75
2023/03/17 08:36:15;;;;;;;1.70;1.60;;;;;;;10.07;50.79;100922.75;5012188;28;20253;-75
2023/03/17 08:38:43;;;;;;;2.17;1.60;;;;;;;10.16;51.13;100953.09;5008686;28;20264;-76
2023/03/17 08:41:13;;;;;;;2.63;1.80;;;;;;;10.27;49.85;100908.66;5012278;28;20565;-76
2023/03/17 08:43:40;;;;;;;1.80;1.60;;;;;;;10.31;48.91;100942.56;5011789;28;20231;-75
2023/03/17 08:46:10;;;;;;;1.90;1.60;;;;;;;10.34;47.49;100970.34;5012340;28;20250;-76
2023/03/17 08:48:36;;;;;;;1.87;1.70;;;;;;;10.37;46.40;100993.81;5012854;28;20242;-76
2023/03/17 08:51:04;;;;;;;1.83;1.70;;;;;;;10.42;47.45;101054.66;5011066;28;20223;-75
2023/03/17 08:53:31;;;;;;;2.37;1.60;;;;;;;10.43;47.91;101076.44;5010579;28;20645;-75
2023/03/17 08:55:59;;;;;;;2.10;1.93;;;;;;;10.40;46.81;101073.81;5012143;28;20264;-76
2023/03/17 08:58:26;;;;;;;1.93;1.80;;;;;;;10.40;47.66;101108.59;5011704;28;20237;-75
2023/03/17 09:00:52;;;;;;;1.60;1.50;;;;;;;10.48;47.03;101103.34;5011965;28;20198;-76
2023/03/17 09:03:19;;;;;;;1.50;1.40;;;;;;;10.59;47.40;101111.09;5011868;28;20209;-76
2023/03/17 09:05:46;;;;;;;1.60;1.50;;;;;;;10.66;47.50;101112.75;5011933;28;20273;-76
2023/03/17 09:08:13;;;;;;;1.77;1.50;;;;;;;10.73;47.29;101098.78;5011065;28;20268;-76
2023/03/17 09:10:39;;;;;;;1.40;1.27;;;;;;;10.81;47.56;101110.03;5011934;28;20238;-76
2023/03/17 09:13:07;;;;;;;4.27;1.60;;;;;;;10.93;48.11;101103.81;5011687;28;20260;-76
2023/03/17 09:15:35;;;;;;;1.40;1.30;;;;;;;10.99;45.89;101071.56;5011966;28;20317;-76
2023/03/17 09:18:02;;;;;;;1.60;1.47;;;;;;;11.04;45.70;101085.41;5011835;28;20208;-76
2023/03/17 09:20:29;;;;;;;1.60;1.50;;;;;;;11.12;46.75;101115.81;5010228;28;20743;-75
2023/03/17 09:22:55;;;;;;;1.50;1.40;;;;;;;11.17;46.46;101107.94;5011529;28;20841;-76
2023/03/17 09:25:22;;;;;;;1.77;1.60;;;;;;;11.24;46.60;101113.97;5012008;28;20263;-76
2023/03/17 09:27:48;;;;;;;1.60;1.27;;;;;;;11.30;46.76;101100.84;5011840;28;20202;-75
2023/03/17 09:30:17;;;;;;;1.60;1.50;;;;;;;11.41;48.41;101112.00;5011840;28;20239;-76
2023/03/17 09:32:44;;;;;;;1.73;1.63;;;;;;;11.43;46.90;101081.50;5014071;28;20208;-75
2023/03/17 09:35:12;;;;;;;1.57;1.43;;;;;;;11.44;45.51;101091.06;5014780;28;20200;-75
2023/03/17 09:37:38;;;;;;;2.10;1.50;;;;;;;11.52;47.57;101110.16;5015022;28;20236;-75
2023/03/17 09:40:08;;;;;;;2.90;1.50;;;;;;;11.61;47.40;101103.06;5015579;28;20210;-76
2023/03/17 09:42:47;;;;;;;1.60;1.40;;;;;;;11.61;46.09;101079.53;5014980;28;20634;-76
2023/03/17 09:45:28;;;;;;;1.90;1.50;;;;;;;11.71;46.84;101096.81;5015276;28;20217;-75
2023/03/17 09:48:12;;;;;;;1.57;1.47;;;;;;;11.79;45.86;101081.91;5015535;28;20282;-76
2023/03/17 09:50:44;;;;;;;1.60;1.50;;;;;;;11.87;47.68;101076.56;5008064;28;20225;-75
2023/03/17 09:53:18;;;;;;;1.60;1.40;;;;;;;11.84;45.25;101079.25;5005819;28;20279;-75
2023/03/17 09:55:47;;;;;;;1.90;1.70;;;;;;;11.85;44.37;101092.31;5015249;28;20268;-75
2023/03/17 09:58:14;;;;;;;1.57;1.43;;;;;;;11.97;45.29;101122.69;5015240;28;20267;-76
2023/03/17 10:00:43;;;;;;;2.40;1.70;;;;;;;12.01;44.64;101131.34;5015466;28;20209;-75
2023/03/17 10:03:11;;;;;;;1.40;1.30;;;;;;;12.02;44.45;101141.78;5015235;28;20234;-76
2023/03/17 10:05:38;;;;;;;1.27;1.17;;;;;;;12.09;46.12;101153.03;5012927;28;20229;-76
2023/03/17 10:08:12;;;;;;;2.33;1.60;;;;;;;12.08;44.30;101133.00;5015127;28;20296;-76
2023/03/17 10:10:45;;;;;;;1.67;1.57;;;;;;;12.10;44.27;101153.03;5014842;28;20224;-75
2023/03/17 10:13:21;;;;;;;1.50;1.40;;;;;;;12.16;43.94;101169.53;5014837;28;20407;-75
2023/03/17 10:15:53;;;;;;;1.57;1.40;;;;;;;12.15;43.82;101166.06;5015496;28;20260;-76
2023/03/17 10:18:25;;;;;;;1.70;1.57;;;;;;;12.29;45.95;101190.28;5015461;28;20241;-75
2023/03/17 10:20:56;;;;;;;1.60;1.50;;;;;;;12.34;46.13;101202.44;5015538;28;20292;-75
2023/03/17 10:23:27;;;;;;;3.80;1.63;;;;;;;12.39;44.45;101153.47;5005979;28;20615;-75
2023/03/17 10:25:56;;;;;;;2.07;1.60;;;;;;;12.51;45.75;101180.38;4995423;28;20284;-75
2023/03/17 10:28:28;;;;;;;2.23;1.40;;;;;;;12.49;44.47;101163.81;4995269;28;20246;-75
2023/03/17 10:31:01;;;;;;;1.60;1.50;;;;;;;12.50;44.87;101165.53;4995138;28;20304;-75
2023/03/17 10:33:28;;;;;;;1.83;1.50;;;;;;;12.49;43.65;101137.63;4994706;28;20209;-75
2023/03/17 10:35:54;;;;;;;2.13;1.53;;;;;;;12.47;44.20;101160.34;4995084;28;20233;-76
2023/03/17 10:38:21;;;;;;;1.63;1.50;;;;;;;12.56;45.35;101175.03;4994927;28;20672;-75
2023/03/17 10:40:56;;;;;;;1.40;1.30;;;;;;;12.60;44.92;101160.16;4995240;28;20231;-75
2023/03/17 10:43:27;;;;;;;1.67;1.57;;;;;;;12.68;45.79;101166.13;4993899;28;20212;-76
2023/03/17 10:46:07;;;;;;;2.13;1.90;;;;;;;12.69;44.11;101115.50;4994725;28;20233;-75
2023/03/17 10:48:36;;;;;;;1.70;1.60;;;;;;;12.73;43.87;101109.31;4994994;28;20234;-76
2023/03/17 10:51:07;;;;;;;1.40;1.30;;;;;;;12.77;45.00;101138.94;4994729;28;20275;-75
2023/03/17 10:53:37;;;;;;;1.87;1.47;;;;;;;12.91;45.12;101129.09;4994573;28;20261;-76
2023/03/17 10:56:08;;;;;;;2.27;2.07;;;;;;;12.84;45.19;101151.03;4994786;28;20230;-75
2023/03/17 10:58:40;;;;;;;1.37;1.27;;;;;;;12.97;44.92;101130.72;5004361;28;20238;-76
2023/03/17 11:01:16;;;;;;;1.40;1.30;;;;;;;13.04;44.94;101135.84;5014048;28;20213;-76
2023/03/17 11:03:43;;;;;;;1.83;1.40;;;;;;;13.12;44.20;101117.31;5013797;28;20678;-75
2023/03/17 11:06:12;;;;;;;1.60;1.43;;;;;;;13.20;44.60;101125.06;5013695;28;20233;-75
2023/03/17 11:08:41;;;;;;;1.73;1.40;;;;;;;13.18;43.42;101142.56;5014103;28;20232;-76
2023/03/17 11:11:10;;;;;;;1.97;1.50;;;;;;;13.21;43.61;101148.63;5013797;28;20230;-76
2023/03/17 11:13:36;;;;;;;2.63;1.30;;;;;;;13.20;43.23;101162.66;5013807;28;20563;-75
2023/03/17 11:16:17;;;;;;;1.97;1.37;;;;;;;13.28;43.26;101159.88;5012306;28;20240;-76
2023/03/17 11:18:45;;;;;;;2.73;1.40;;;;;;;13.51;44.60;101176.06;5013971;28;20252;-75
2023/03/17 11:21:18;;;;;;;1.60;1.50;;;;;;;13.73;44.17;101174.78;5013590;28;20579;-75
2023/03/17 11:23:50;;;;;;;1.50;1.40;;;;;;;13.92;43.81;101151.66;5013852;28;20240;-76
2023/03/17 11:26:33;;;;;;;1.50;1.40;;;;;;;14.06;44.29;101147.81;5013818;28;20273;-76
2023/03/17 11:29:23;;;;;;;1.53;1.30;;;;;;;14.30;43.79;101159.53;5014406;28;20358;-76
2023/03/17 11:31:58;;;;;;;1.73;1.60;;;;;;;14.36;43.38;101153.28;5012807;28;20673;-76
2023/03/17 11:34:38;;;;;;;1.77;1.40;;;;;;;14.38;43.25;101155.88;4993955;28;20199;-76
2023/03/17 11:37:15;;;;;;;2.87;1.90;;;;;;;14.37;43.11;101170.78;4994010;28;20709;-75